createdAt,value
2022-08-27T00:01:22.951Z,99278.34
2022-08-27T00:06:25.702Z,99272.72
2022-08-27T00:11:28.115Z,99269.97
2022-08-27T00:16:29.856Z,99257.50
2022-08-27T00:21:33.268Z,99265.13
2022-08-27T00:26:37.332Z,99269.75
2022-08-27T00:31:40.835Z,99272.69
2022-08-27T00:36:42.735Z,99273.84
2022-08-27T00:41:44.405Z,99279.19
2022-08-27T00:46:50.709Z,99283.94
2022-08-27T00:51:57.484Z,99285.94
2022-08-27T00:57:00.485Z,99275.91
2022-08-27T01:02:20.114Z,99274.16
2022-08-27T01:07:23.729Z,99270.44
2022-08-27T01:12:26.310Z,99265.16
2022-08-27T01:17:28.189Z,99275.09
2022-08-27T01:23:06.649Z,99278.22
2022-08-27T01:28:10.065Z,99279.53
2022-08-27T01:33:15.611Z,99287.09
2022-08-27T01:38:30.442Z,99276.75
2022-08-27T01:43:32.882Z,99273.50
2022-08-27T01:48:34.826Z,99275.50
2022-08-27T01:53:36.802Z,99264.50
2022-08-27T01:58:39.154Z,99263.56
2022-08-27T02:03:40.977Z,99273.28
2022-08-27T02:08:42.773Z,99271.69
2022-08-27T02:13:44.435Z,99264.75
2022-08-27T02:18:47.341Z,99267.88
2022-08-27T02:23:48.989Z,99258.34
2022-08-27T02:28:50.685Z,99259.19
2022-08-27T02:33:52.674Z,99245.75
2022-08-27T02:38:54.431Z,99250.91
2022-08-27T02:43:56.073Z,99247.66
2022-08-27T02:48:57.822Z,99242.94
2022-08-27T02:54:00.874Z,99239.56
2022-08-27T02:59:04.251Z,99237.78
2022-08-27T03:04:06.125Z,99242.47
2022-08-27T03:09:07.895Z,99245.69
2022-08-27T03:14:09.598Z,99245.50
2022-08-27T03:19:11.606Z,99247.81
2022-08-27T03:24:14.764Z,99249.66
2022-08-27T03:29:16.564Z,99250.91
2022-08-27T03:34:20.020Z,99256.09
2022-08-27T03:39:21.741Z,99260.13
2022-08-27T03:44:24.393Z,99265.47
2022-08-27T03:49:26.178Z,99256.91
2022-08-27T03:54:27.952Z,99267.59
2022-08-27T03:59:29.776Z,99267.06
2022-08-27T04:04:31.491Z,99269.69
2022-08-27T04:09:33.095Z,99262.66
2022-08-27T04:14:34.766Z,99266.88
2022-08-27T04:19:36.517Z,99276.66
2022-08-27T04:24:38.684Z,99272.50
2022-08-27T04:29:40.850Z,99268.53
2022-08-27T04:34:42.733Z,99266.53
2022-08-27T04:39:48.596Z,99268.44
2022-08-27T04:44:53.479Z,99269.53
2022-08-27T04:49:55.135Z,99272.34
2022-08-27T04:54:59.036Z,99281.88
2022-08-27T05:00:00.704Z,99269.53
2022-08-27T05:05:02.393Z,99264.13
2022-08-27T05:10:04.272Z,99259.00
2022-08-27T05:15:06.518Z,99269.91
2022-08-27T05:20:09.592Z,99264.03
2022-08-27T05:25:11.360Z,99266.28
2022-08-27T05:30:13.264Z,99270.44
2022-08-27T05:35:15.766Z,99266.06
2022-08-27T05:40:17.581Z,99263.72
2022-08-27T05:45:19.585Z,99259.44
2022-08-27T05:50:23.670Z,99262.41
2022-08-27T05:55:25.467Z,99265.44
2022-08-27T06:00:45.859Z,99266.28
2022-08-27T06:05:48.190Z,99267.22
2022-08-27T06:10:50.207Z,99273.94
2022-08-27T06:16:01.181Z,99277.19
2022-08-27T06:21:02.988Z,99282.03
2022-08-27T06:26:08.897Z,99288.09
2022-08-27T06:31:14.163Z,99285.59
2022-08-27T06:36:19.767Z,99290.19
2022-08-27T06:41:24.736Z,99292.88
2022-08-27T06:46:29.351Z,99295.72
2022-08-27T06:51:34.163Z,99290.69
2022-08-27T06:56:36.335Z,99305.09
2022-08-27T07:01:41.801Z,99305.94
2022-08-27T07:06:43.780Z,99306.59
2022-08-27T07:11:45.411Z,99323.66
2022-08-27T07:16:48.296Z,99323.16
2022-08-27T07:21:52.218Z,99330.47
2022-08-27T07:26:54.487Z,99332.41
2022-08-27T07:31:56.169Z,99324.50
2022-08-27T07:36:57.952Z,99315.66
2022-08-27T07:42:18.216Z,99330.19
2022-08-27T07:47:19.979Z,99326.53
2022-08-27T07:52:25.900Z,99340.97
2022-08-27T07:57:28.196Z,99340.47
2022-08-27T08:02:30.977Z,99352.94
2022-08-27T08:07:34.377Z,99353.09
2022-08-27T08:12:40.197Z,99351.97
2022-08-27T08:17:41.840Z,99352.88
2022-08-27T08:22:43.536Z,99351.28
2022-08-27T08:27:45.262Z,99357.28
2022-08-27T08:32:46.979Z,99353.53
2022-08-27T08:37:48.658Z,99361.81
2022-08-27T08:42:54.954Z,99375.09
2022-08-27T08:48:05.078Z,99370.50
2022-08-27T08:53:13.244Z,99363.31
2022-08-27T08:58:44.934Z,99365.91
2022-08-27T09:03:59.985Z,99364.75
2022-08-27T09:09:29.535Z,99364.84
2022-08-27T09:14:41.629Z,99373.34
2022-08-27T09:19:47.912Z,99365.16
2022-08-27T09:25:32.740Z,99373.00
2022-08-27T09:30:43.796Z,99375.00
2022-08-27T09:35:46.931Z,99371.44
2022-08-27T09:40:51.251Z,99378.72
2022-08-27T09:45:56.148Z,99380.47
2022-08-27T09:51:11.085Z,99382.19
2022-08-27T09:56:33.137Z,99381.28
2022-08-27T10:01:57.796Z,99391.53
2022-08-27T10:06:59.707Z,99379.06
2022-08-27T10:12:17.810Z,99385.69
2022-08-27T10:17:53.651Z,99385.66
2022-08-27T10:23:05.608Z,99378.16
2022-08-27T10:28:34.467Z,99380.69
2022-08-27T10:33:54.490Z,99376.03
2022-08-27T10:39:15.232Z,99389.38
2022-08-27T10:44:46.500Z,99376.63
2022-08-27T10:50:10.544Z,99380.13
2022-08-27T10:55:24.125Z,99379.72
2022-08-27T11:00:36.552Z,99385.28
2022-08-27T11:05:45.324Z,99394.34
2022-08-27T11:11:26.004Z,99394.13
2022-08-27T11:16:31.614Z,99389.41
2022-08-27T11:21:43.690Z,99385.97
2022-08-27T11:26:46.908Z,99398.88
2022-08-27T11:31:53.581Z,99388.22
2022-08-27T11:37:21.774Z,99390.31
2022-08-27T11:42:48.264Z,99396.09
2022-08-27T11:47:56.051Z,99394.13
2022-08-27T11:53:06.773Z,99398.63
2022-08-27T11:58:17.757Z,99385.09
2022-08-27T12:03:19.434Z,99388.84
2022-08-27T12:08:24.250Z,99388.56
2022-08-27T12:13:32.665Z,99385.28
2022-08-27T12:18:38.904Z,99377.13
2022-08-27T12:23:55.765Z,99376.00
2022-08-27T12:29:34.326Z,99373.91
2022-08-27T12:35:03.289Z,99371.16
2022-08-27T12:40:39.443Z,99371.34
2022-08-27T12:46:07.860Z,99372.59
2022-08-27T12:51:18.860Z,99363.94
2022-08-27T12:56:30.098Z,99368.34
2022-08-27T13:01:43.132Z,99377.88
2022-08-27T13:06:45.939Z,99369.53
2022-08-27T13:11:55.902Z,99363.81
2022-08-27T13:17:14.816Z,99364.31
2022-08-27T13:22:49.898Z,99362.16
2022-08-27T13:27:56.228Z,99368.66
2022-08-27T13:32:59.868Z,99362.75
2022-08-27T13:38:03.125Z,99369.06
2022-08-27T13:43:11.875Z,99362.66
2022-08-27T13:48:17.256Z,99363.94
2022-08-27T13:53:42.804Z,99354.69
2022-08-27T13:58:44.501Z,99364.53
2022-08-27T14:03:50.023Z,99359.47
2022-08-27T14:08:51.873Z,99367.53
2022-08-27T14:13:56.980Z,99362.00
2022-08-27T14:19:23.785Z,99367.34
2022-08-27T14:24:26.383Z,99378.03
2022-08-27T14:29:28.105Z,99370.69
2022-08-27T14:34:30.569Z,99376.81
2022-08-27T14:39:32.396Z,99373.38
2022-08-27T14:44:34.143Z,99376.78
2022-08-27T14:49:39.405Z,99384.94
2022-08-27T14:54:42.424Z,99383.22
2022-08-27T14:59:44.068Z,99381.97
2022-08-27T15:04:47.955Z,99377.09
2022-08-27T15:09:49.846Z,99379.38
2022-08-27T15:14:51.519Z,99378.81
2022-08-27T15:19:53.145Z,99382.34
2022-08-27T15:24:56.870Z,99378.47
2022-08-27T15:30:01.828Z,99377.75
2022-08-27T15:35:08.248Z,99370.63
2022-08-27T15:40:11.811Z,99371.19
2022-08-27T15:45:14.542Z,99369.31
2022-08-27T15:50:17.443Z,99366.44
2022-08-27T15:55:22.990Z,99377.06
2022-08-27T16:00:24.926Z,99380.38
2022-08-27T16:05:30.573Z,99373.50
2022-08-27T16:10:32.258Z,99373.94
2022-08-27T16:15:39.398Z,99357.13
2022-08-27T16:20:42.040Z,99363.38
2022-08-27T16:25:43.658Z,99365.97
2022-08-27T16:30:45.493Z,99362.03
2022-08-27T16:35:47.343Z,99363.19
2022-08-27T16:40:52.966Z,99360.16
2022-08-27T16:45:58.095Z,99358.44
2022-08-27T16:51:00.214Z,99360.50
2022-08-27T16:56:02.411Z,99369.19
2022-08-27T17:01:07.541Z,99362.91
2022-08-27T17:06:10.657Z,99374.84
2022-08-27T17:11:21.910Z,99382.38
2022-08-27T17:16:25.645Z,99392.56
2022-08-27T17:21:32.055Z,99401.06
2022-08-27T17:26:34.132Z,99409.34
2022-08-27T17:31:38.215Z,99404.22
2022-08-27T17:36:39.859Z,99415.41
2022-08-27T17:41:49.100Z,99417.56
2022-08-27T17:46:52.451Z,99420.13
2022-08-27T17:51:57.832Z,99425.09
2022-08-27T17:57:01.621Z,99432.41
2022-08-27T18:02:03.460Z,99435.16
2022-08-27T18:07:05.159Z,99439.00
2022-08-27T18:12:07.705Z,99449.44
2022-08-27T18:17:09.484Z,99446.47
2022-08-27T18:22:15.412Z,99463.56
2022-08-27T18:27:18.175Z,99460.66
2022-08-27T18:32:19.877Z,99462.97
2022-08-27T18:37:21.718Z,99469.31
2022-08-27T18:42:23.446Z,99475.25
2022-08-27T18:47:25.107Z,99477.31
2022-08-27T18:52:26.795Z,99482.88
2022-08-27T18:57:28.486Z,99485.41
2022-08-27T19:02:31.014Z,99480.78
2022-08-27T19:07:32.783Z,99492.50
2022-08-27T19:12:34.571Z,99484.66
2022-08-27T19:17:41.816Z,99492.03
2022-08-27T19:22:43.625Z,99496.19
2022-08-27T19:27:46.351Z,99503.06
2022-08-27T19:32:48.291Z,99505.34
2022-08-27T19:37:56.587Z,99509.38
2022-08-27T19:42:58.392Z,99504.50
2022-08-27T19:48:00.141Z,99502.63
2022-08-27T19:53:01.781Z,99506.03
2022-08-27T19:58:03.661Z,99498.47
2022-08-27T20:03:08.054Z,99496.56
2022-08-27T20:08:09.726Z,99497.34
2022-08-27T20:13:14.736Z,99499.84
2022-08-27T20:18:16.726Z,99501.78
2022-08-27T20:23:18.593Z,99502.06
2022-08-27T20:28:39.029Z,99498.75
2022-08-27T20:33:41.529Z,99498.22
2022-08-27T20:38:43.158Z,99502.75
2022-08-27T20:43:44.920Z,99506.28
2022-08-27T20:48:47.056Z,99506.03
2022-08-27T20:53:48.719Z,99503.53
2022-08-27T20:59:08.723Z,99506.41
2022-08-27T21:04:11.507Z,99504.38
2022-08-27T21:09:13.212Z,99513.22
2022-08-27T21:14:14.839Z,99506.69
2022-08-27T21:19:16.493Z,99509.75
2022-08-27T21:24:18.506Z,99519.09
2022-08-27T21:29:20.465Z,99519.31
2022-08-27T21:34:22.182Z,99521.41
2022-08-27T21:39:23.883Z,99523.13
2022-08-27T21:44:25.544Z,99520.16
2022-08-27T21:49:27.947Z,99519.78
2022-08-27T21:54:32.724Z,99525.34
2022-08-27T21:59:41.729Z,99521.53
2022-08-27T22:04:43.383Z,99520.38
2022-08-27T22:09:45.466Z,99527.34
2022-08-27T22:14:47.130Z,99530.88
2022-08-27T22:19:48.756Z,99521.72
2022-08-27T22:24:50.465Z,99514.22
2022-08-27T22:29:53.435Z,99520.22
2022-08-27T22:34:55.073Z,99514.50
2022-08-27T22:39:57.055Z,99512.13
2022-08-27T22:44:59.630Z,99520.91
2022-08-27T22:50:01.340Z,99520.28
2022-08-27T22:55:03.804Z,99526.34
2022-08-27T23:00:12.848Z,99529.72
2022-08-27T23:05:15.605Z,99527.13
2022-08-27T23:10:20.648Z,99525.44
2022-08-27T23:15:28.601Z,99533.41
2022-08-27T23:20:30.296Z,99533.78
2022-08-27T23:25:50.199Z,99531.50
2022-08-27T23:30:52.364Z,99533.78
2022-08-27T23:35:54.058Z,99532.44
2022-08-27T23:40:55.927Z,99539.22
2022-08-27T23:45:57.581Z,99535.28
2022-08-27T23:50:59.362Z,99539.75
2022-08-27T23:56:00.989Z,99536.31
